Time;durP1;ratioP1;P1;durP2;ratioP2;P2;SDS_P1;SDS_P2;PMS_P1;PMS_P2;Temp;Humidity;BMP_temperature;BMP_pressure;BME280_temperature;BME280_humidity;BME280_pressure;Samples;Min_cycle;Max_cycle;Signal;HPM_P1;HPM_P2
2021/04/01 00:00:15;;;;;;;6.25;4.63;;;17.60;93.20;;;;;;4972830;28;20193;-68
2021/04/01 00:02:42;;;;;;;5.35;4.78;;;17.50;92.80;;;;;;4988054;28;20266;-69
2021/04/01 00:05:10;;;;;;;5.72;5.15;;;17.50;92.80;;;;;;4969833;28;20688;-68
2021/04/01 00:07:36;;;;;;;7.07;5.28;;;17.50;92.90;;;;;;4987490;28;20212;-69
2021/04/01 00:10:07;;;;;;;5.18;4.63;;;17.50;92.90;;;;;;4988341;28;20254;-68
2021/04/01 00:12:34;;;;;;;5.15;4.53;;;17.50;92.90;;;;;;4987254;28;20263;-68
2021/04/01 00:15:00;;;;;;;6.10;5.15;;;17.50;93.00;;;;;;4972140;28;20216;-68
2021/04/01 00:17:27;;;;;;;6.03;4.97;;;17.50;93.00;;;;;;4968828;28;20209;-68
2021/04/01 00:19:53;;;;;;;5.60;5.10;;;17.50;93.00;;;;;;4970426;28;20513;-68
2021/04/01 00:22:19;;;;;;;5.72;4.97;;;17.50;93.40;;;;;;4968793;28;20209;-67
2021/04/01 00:24:45;;;;;;;5.25;4.63;;;17.50;93.10;;;;;;4983899;28;20262;-68
2021/04/01 00:27:11;;;;;;;5.18;4.68;;;17.40;93.10;;;;;;4986464;28;20228;-67
2021/04/01 00:29:38;;;;;;;6.10;5.50;;;17.40;93.10;;;;;;4988508;28;20725;-69
2021/04/01 00:32:05;;;;;;;4.40;4.00;;;17.40;93.20;;;;;;4984734;28;20202;-69
2021/04/01 00:34:32;;;;;;;6.50;4.60;;;17.40;93.20;;;;;;4973744;28;20226;-69
2021/04/01 00:36:58;;;;;;;7.00;4.90;;;17.40;93.20;;;;;;4976704;28;20197;-69
2021/04/01 00:39:24;;;;;;;7.38;5.38;;;17.30;93.20;;;;;;4972814;28;20198;-69
2021/04/01 00:41:50;;;;;;;6.00;5.07;;;17.40;93.30;;;;;;4974317;28;20209;-69
2021/04/01 00:44:17;;;;;;;6.05;5.03;;;17.30;93.30;;;;;;4972020;28;20251;-69
2021/04/01 00:46:46;;;;;;;6.07;4.78;;;17.30;93.30;;;;;;4976603;28;20198;-69
2021/04/01 00:49:12;;;;;;;7.30;4.88;;;17.30;93.40;;;;;;4972129;28;20254;-70
2021/04/01 00:51:39;;;;;;;6.55;5.65;;;17.30;93.40;;;;;;4984810;28;20691;-67
2021/04/01 00:54:06;;;;;;;6.22;5.65;;;17.30;93.50;;;;;;4986922;28;20216;-69
2021/04/01 00:56:32;;;;;;;5.90;4.60;;;17.20;93.50;;;;;;4977441;28;20233;-69
2021/04/01 00:59:00;;;;;;;6.55;5.22;;;17.20;93.50;;;;;;4975170;28;20206;-70
2021/04/01 01:01:36;;;;;;;5.40;4.82;;;17.20;93.50;;;;;;4972367;28;20205;-69
2021/04/01 01:04:03;;;;;;;6.40;5.28;;;17.20;93.60;;;;;;4971964;28;20220;-70
2021/04/01 01:06:29;;;;;;;5.80;4.90;;;17.20;94.00;;;;;;4973937;28;20206;-69
2021/04/01 01:08:56;;;;;;;5.38;4.43;;;17.20;93.70;;;;;;4981255;28;20212;-70
2021/04/01 01:11:22;;;;;;;6.47;5.20;;;17.10;93.70;;;;;;4988505;28;20193;-69
2021/04/01 01:13:49;;;;;;;5.35;4.85;;;17.20;93.80;;;;;;4976223;28;20730;-70
2021/04/01 01:16:15;;;;;;;6.63;5.70;;;17.10;93.80;;;;;;4976774;28;20208;-70
2021/04/01 01:18:41;;;;;;;6.13;4.78;;;17.10;93.80;;;;;;4986383;28;20197;-70
2021/04/01 01:21:08;;;;;;;6.00;5.35;;;17.10;93.90;;;;;;4985872;28;20357;-70
2021/04/01 01:23:35;;;;;;;8.60;5.47;;;17.10;93.90;;;;;;4987586;28;20205;-70
2021/04/01 01:26:02;;;;;;;5.88;5.28;;;17.10;94.00;;;;;;4987553;28;20213;-69
2021/04/01 01:28:29;;;;;;;5.78;5.05;;;17.00;94.00;;;;;;4971788;28;20213;-70
2021/04/01 01:30:55;;;;;;;7.72;6.22;;;17.00;94.00;;;;;;4980042;28;20220;-70
2021/04/01 01:33:22;;;;;;;6.82;5.60;;;17.00;94.10;;;;;;4991223;28;20625;-69
2021/04/01 01:35:50;;;;;;;6.10;5.40;;;17.00;94.10;;;;;;4975272;28;20304;-69
2021/04/01 01:38:16;;;;;;;6.03;5.32;;;17.00;94.20;;;;;;4990531;28;20209;-69
2021/04/01 01:40:43;;;;;;;5.35;4.72;;;17.00;94.30;;;;;;4989778;28;20548;-69
2021/04/01 01:43:12;;;;;;;6.40;5.80;;;16.90;94.30;;;;;;4991091;28;20545;-70
2021/04/01 01:45:40;;;;;;;5.82;4.60;;;16.90;94.30;;;;;;4989064;28;20619;-70
2021/04/01 01:48:07;;;;;;;6.53;5.22;;;16.90;94.30;;;;;;4990294;28;20288;-70
2021/04/01 01:50:36;;;;;;;5.68;5.05;;;16.90;94.40;;;;;;4984623;28;20202;-69
2021/04/01 01:53:03;;;;;;;6.93;6.00;;;16.90;94.40;;;;;;4971515;28;20247;-69
2021/04/01 01:55:30;;;;;;;6.03;5.43;;;16.90;94.50;;;;;;4982146;28;20223;-69
2021/04/01 01:57:56;;;;;;;6.50;5.07;;;16.90;94.50;;;;;;4990073;28;20537;-69
2021/04/01 02:00:26;;;;;;;5.72;4.97;;;16.80;94.50;;;;;;4990556;28;20212;-69
2021/04/01 02:02:54;;;;;;;6.10;5.45;;;16.80;94.60;;;;;;4990773;28;20189;-69
2021/04/01 02:05:21;;;;;;;6.10;5.38;;;16.80;94.60;;;;;;4989202;28;20204;-70
2021/04/01 02:07:47;;;;;;;5.80;5.25;;;16.80;94.60;;;;;;4986830;28;20193;-70
2021/04/01 02:10:15;;;;;;;5.72;4.78;;;16.80;94.70;;;;;;4990589;28;20242;-69
2021/04/01 02:12:41;;;;;;;6.05;5.38;;;16.70;94.70;;;;;;4989481;28;20244;-69
2021/04/01 02:15:11;;;;;;;7.20;5.68;;;16.70;94.70;;;;;;4990498;28;20221;-69
2021/04/01 02:17:39;;;;;;;5.43;4.93;;;16.70;94.80;;;;;;4985076;28;20197;-69
2021/04/01 02:20:07;;;;;;;5.78;5.13;;;16.70;94.80;;;;;;4979476;28;20213;-69
2021/04/01 02:22:33;;;;;;;8.45;5.82;;;16.70;94.90;;;;;;4989581;28;20208;-69
2021/04/01 02:24:59;;;;;;;7.10;5.05;;;16.70;94.90;;;;;;4990112;28;20208;-68
2021/04/01 02:27:26;;;;;;;5.00;4.55;;;16.70;95.00;;;;;;4988143;28;20240;-68
2021/04/01 02:29:52;;;;;;;5.80;5.30;;;16.70;95.00;;;;;;4990237;28;20641;-68
2021/04/01 02:32:18;;;;;;;5.60;4.55;;;16.70;95.00;;;;;;4987059;28;20193;-68
2021/04/01 02:34:45;;;;;;;6.78;5.38;;;16.60;95.10;;;;;;4972200;28;20236;-67
2021/04/01 02:37:11;;;;;;;6.65;4.97;;;16.60;95.10;;;;;;4979964;28;20270;-68
2021/04/01 02:39:38;;;;;;;6.68;5.85;;;16.60;95.10;;;;;;4989885;28;20844;-68
2021/04/01 02:42:05;;;;;;;6.15;4.82;;;16.60;95.20;;;;;;4990137;28;20205;-68
2021/04/01 02:44:31;;;;;;;5.50;5.00;;;16.60;95.20;;;;;;4988731;28;20205;-69
2021/04/01 02:46:58;;;;;;;6.28;5.68;;;16.60;95.20;;;;;;4981612;28;20755;-68
2021/04/01 02:49:24;;;;;;;6.35;5.75;;;16.60;95.30;;;;;;4983275;28;20212;-69
2021/04/01 02:51:51;;;;;;;6.13;5.32;;;16.50;95.30;;;;;;4988479;28;20258;-69
2021/04/01 02:54:17;;;;;;;5.35;4.78;;;16.50;95.30;;;;;;4988446;28;20537;-69
2021/04/01 02:56:43;;;;;;;6.75;6.07;;;16.50;95.40;;;;;;4976425;28;20201;-69
2021/04/01 02:59:09;;;;;;;5.30;4.80;;;16.50;95.40;;;;;;4970325;28;20202;-68
2021/04/01 03:01:36;;;;;;;8.30;5.18;;;16.50;95.40;;;;;;4969304;28;20198;-69
2021/04/01 03:04:05;;;;;;;7.38;5.18;;;16.50;95.40;;;;;;4970351;28;20201;-69
2021/04/01 03:06:31;;;;;;;5.13;4.55;;;16.50;95.50;;;;;;4974250;28;20198;-69
2021/04/01 03:08:58;;;;;;;5.50;4.90;;;16.50;95.60;;;;;;4975377;28;20206;-68
2021/04/01 03:11:24;;;;;;;6.05;5.15;;;16.50;95.60;;;;;;4970287;28;20201;-69
2021/04/01 03:13:50;;;;;;;5.88;5.28;;;16.50;95.60;;;;;;4977969;28;20201;-68
2021/04/01 03:16:16;;;;;;;4.90;4.35;;;16.40;95.60;;;;;;4974610;28;20255;-68
2021/04/01 03:18:42;;;;;;;4.78;4.32;;;16.40;95.60;;;;;;4972729;28;20221;-68
2021/04/01 03:21:09;;;;;;;7.00;5.43;;;16.40;95.70;;;;;;4978454;28;20251;-69
2021/04/01 03:23:35;;;;;;;5.20;4.50;;;16.40;95.70;;;;;;4988917;28;20223;-69
2021/04/01 03:26:02;;;;;;;5.55;4.85;;;16.40;95.70;;;;;;4988336;28;20704;-69
2021/04/01 03:28:29;;;;;;;5.75;4.55;;;16.40;95.70;;;;;;4972358;28;20205;-69
2021/04/01 03:31:00;;;;;;;7.18;5.22;;;16.40;95.70;;;;;;4981184;28;20246;-69
2021/04/01 03:33:26;;;;;;;5.30;4.68;;;16.40;95.70;;;;;;4982925;28;20190;-69
2021/04/01 03:35:52;;;;;;;8.38;5.07;;;16.40;95.80;;;;;;4987227;28;20224;-69
2021/04/01 03:38:19;;;;;;;6.78;6.07;;;16.40;95.80;;;;;;4988227;28;20197;-69
2021/04/01 03:40:46;;;;;;;5.85;4.70;;;16.40;95.80;;;;;;4989057;28;20204;-68
2021/04/01 03:43:13;;;;;;;5.95;5.40;;;16.30;95.80;;;;;;4979041;28;20874;-68
2021/04/01 03:45:40;;;;;;;6.40;4.55;;;16.30;95.80;;;;;;4981454;28;20649;-68
2021/04/01 03:48:07;;;;;;;7.35;5.50;;;16.30;95.90;;;;;;4972979;28;20323;-68
2021/04/01 03:50:33;;;;;;;7.63;5.55;;;16.30;95.90;;;;;;4988902;28;20219;-68
2021/04/01 03:53:00;;;;;;;5.95;5.40;;;16.30;95.90;;;;;;4987886;28;20217;-68
2021/04/01 03:55:38;;;;;;;6.30;5.70;;;16.30;96.00;;;;;;4987436;28;20274;-69
2021/04/01 03:58:19;;;;;;;8.15;4.97;;;16.30;96.00;;;;;;4988630;28;20194;-69
2021/04/01 04:04:19;;;;;;;6.75;5.10;;;16.20;96.10;;;;;;4975010;28;20185;-68
2021/04/01 04:09:41;;;;;;;6.75;5.75;;;16.20;96.00;;;;;;4976680;28;20201;-68
2021/04/01 04:12:16;;;;;;;6.07;5.45;;;16.20;96.10;;;;;;4980591;28;20560;-68
2021/04/01 04:14:43;;;;;;;6.90;5.85;;;16.20;96.10;;;;;;4980640;28;20240;-68
2021/04/01 04:17:09;;;;;;;7.25;6.28;;;16.20;96.10;;;;;;4969105;28;20802;-68
2021/04/01 04:19:37;;;;;;;7.20;5.45;;;16.20;96.10;;;;;;4983895;28;20217;-69
2021/04/01 04:22:03;;;;;;;5.45;4.95;;;16.20;96.20;;;;;;4988418;28;20300;-68
2021/04/01 04:24:33;;;;;;;6.32;5.70;;;16.20;96.20;;;;;;4985214;28;20209;-69
2021/04/01 04:27:05;;;;;;;5.53;5.03;;;16.20;96.30;;;;;;4968780;28;20660;-69
2021/04/01 04:29:31;;;;;;;6.30;5.18;;;16.20;96.20;;;;;;4979078;28;20633;-69
2021/04/01 04:31:58;;;;;;;10.55;6.20;;;16.20;96.30;;;;;;4988189;28;20197;-68
2021/04/01 04:34:24;;;;;;;6.03;5.45;;;16.20;96.30;;;;;;4976699;28;20264;-68
2021/04/01 04:36:51;;;;;;;5.88;5.40;;;16.20;96.30;;;;;;4979303;28;20216;-69
2021/04/01 04:39:17;;;;;;;6.30;5.25;;;16.10;96.30;;;;;;4985393;28;20204;-69
2021/04/01 04:41:43;;;;;;;6.15;5.10;;;16.10;96.30;;;;;;4985751;28;20217;-69
2021/04/01 04:44:09;;;;;;;6.60;5.63;;;16.10;96.40;;;;;;4977789;28;20598;-69
2021/04/01 04:46:36;;;;;;;6.82;6.13;;;16.10;96.40;;;;;;4987050;28;20201;-69
2021/04/01 04:49:02;;;;;;;7.25;6.00;;;16.10;96.40;;;;;;4987440;28;20197;-68
2021/04/01 04:51:28;;;;;;;6.53;4.90;;;16.10;96.50;;;;;;4982362;28;20306;-69
2021/04/01 04:53:55;;;;;;;7.10;5.85;;;16.10;96.50;;;;;;4969029;28;20201;-69
2021/04/01 04:56:23;;;;;;;8.52;6.47;;;16.10;96.50;;;;;;4968500;28;20708;-69
2021/04/01 04:58:53;;;;;;;9.80;6.07;;;16.10;96.50;;;;;;4972307;28;20193;-69
2021/04/01 05:06:54;;;;;;;8.65;6.55;;;16.00;96.50;;;;;;4965152;28;20212;-69
2021/04/01 05:09:22;;;;;;;8.57;6.15;;;16.00;96.50;;;;;;4976449;28;20220;-69
2021/04/01 05:11:48;;;;;;;9.10;6.25;;;16.00;96.50;;;;;;4981540;28;20652;-69
2021/04/01 05:14:15;;;;;;;7.20;6.15;;;16.00;96.50;;;;;;4978632;28;20197;-69
2021/04/01 05:16:41;;;;;;;7.25;5.50;;;16.00;96.60;;;;;;4971604;28;20253;-69
2021/04/01 05:19:09;;;;;;;8.07;6.30;;;16.00;96.60;;;;;;4970030;28;20232;-69
2021/04/01 05:21:42;;;;;;;6.88;6.00;;;16.00;96.60;;;;;;4986383;28;20200;-69
2021/04/01 05:24:10;;;;;;;8.20;5.95;;;16.00;96.60;;;;;;4980973;28;20209;-69
2021/04/01 05:27:07;;;;;;;6.95;5.55;;;16.00;96.70;;;;;;4990859;28;20332;-69
2021/04/01 05:29:35;;;;;;;6.47;5.63;;;16.00;96.70;;;;;;4991234;28;20291;-69
2021/04/01 05:32:03;;;;;;;6.05;5.47;;;16.00;96.70;;;;;;4984784;28;20205;-69
2021/04/01 05:34:29;;;;;;;8.65;6.35;;;15.90;96.70;;;;;;4990654;28;20770;-69
2021/04/01 05:36:56;;;;;;;7.30;6.40;;;15.90;96.70;;;;;;4990728;28;20209;-70
2021/04/01 05:39:26;;;;;;;10.43;6.90;;;15.90;96.80;;;;;;4989526;28;20212;-69
2021/04/01 05:41:54;;;;;;;6.80;5.53;;;15.90;96.80;;;;;;4990244;28;20197;-70
2021/04/01 05:44:24;;;;;;;9.07;5.78;;;15.90;96.80;;;;;;4981974;28;20202;-69
2021/04/01 05:46:56;;;;;;;8.32;6.45;;;15.90;96.90;;;;;;4971427;28;20208;-69
2021/04/01 05:49:38;;;;;;;9.60;5.93;;;15.90;96.90;;;;;;4980462;28;20228;-70
2021/04/01 05:55:38;;;;;;;10.85;8.85;;;15.90;96.90;;;;;;4990254;28;20237;-69
2021/04/01 05:58:31;;;;;;;8.70;6.82;;;15.90;97.00;;;;;;4987135;28;20296;-70
2021/04/01 06:04:00;;;;;;;7.03;6.30;;;15.90;96.90;;;;;;5014641;28;20195;-69
2021/04/01 06:06:30;;;;;;;7.63;6.38;;;15.90;97.00;;;;;;4989133;28;20273;-69
2021/04/01 06:09:00;;;;;;;8.65;6.65;;;15.90;97.00;;;;;;4971003;28;20206;-70
2021/04/01 06:11:27;;;;;;;9.98;6.90;;;15.90;97.10;;;;;;4971286;28;20553;-70
2021/04/01 06:14:09;;;;;;;14.20;8.95;;;15.90;97.20;;;;;;4974786;28;20193;-70
2021/04/01 06:16:38;;;;;;;12.75;8.98;;;15.90;97.70;;;;;;4986365;28;20219;-70
2021/04/01 06:19:06;;;;;;;10.18;7.50;;;15.80;97.70;;;;;;4971092;28;20213;-68
2021/04/01 06:21:39;;;;;;;12.38;7.95;;;15.90;97.50;;;;;;4971619;28;20645;-68
2021/04/01 06:24:21;;;;;;;8.85;7.78;;;15.90;97.70;;;;;;4972010;28;20262;-68
2021/04/01 06:26:52;;;;;;;11.00;7.45;;;16.00;97.60;;;;;;4970635;28;20233;-70
2021/04/01 06:29:21;;;;;;;9.95;7.38;;;16.20;97.30;;;;;;4971301;28;20255;-68
2021/04/01 06:31:50;;;;;;;8.90;6.45;;;16.40;96.90;;;;;;4970751;28;20631;-68
2021/04/01 06:34:29;;;;;;;9.23;7.85;;;16.50;96.40;;;;;;4979046;28;20280;-68
2021/04/01 06:36:57;;;;;;;7.65;6.45;;;16.60;96.00;;;;;;4971783;28;20824;-71
2021/04/01 06:39:23;;;;;;;7.38;6.63;;;16.80;95.50;;;;;;4985012;28;20637;-69
2021/04/01 06:42:02;;;;;;;8.07;7.30;;;16.90;95.10;;;;;;4988890;28;20216;-70
2021/04/01 06:44:33;;;;;;;8.20;6.57;;;17.00;94.70;;;;;;4983934;28;20600;-69
2021/04/01 06:47:07;;;;;;;9.48;7.78;;;17.10;94.40;;;;;;4970046;28;20193;-70
2021/04/01 06:52:30;;;;;;;8.30;6.45;;;17.30;93.80;;;;;;4997962;28;20263;-69
2021/04/01 06:55:05;;;;;;;9.20;6.70;;;17.40;93.50;;;;;;4980700;28;20220;-69
2021/04/01 06:57:44;;;;;;;8.85;7.75;;;17.50;93.20;;;;;;4980807;28;20787;-69
2021/04/01 07:00:18;;;;;;;10.70;8.93;;;17.50;93.30;;;;;;4975177;28;20197;-69
2021/04/01 07:02:51;;;;;;;10.27;8.20;;;17.60;92.40;;;;;;4986674;28;20219;-71
2021/04/01 07:05:23;;;;;;;11.88;9.57;;;17.70;92.40;;;;;;4970410;28;20232;-70
2021/04/01 07:07:56;;;;;;;11.88;8.05;;;17.70;91.80;;;;;;4969116;28;20510;-70
2021/04/01 07:10:43;;;;;;;11.25;9.52;;;17.80;91.90;;;;;;4970937;28;20206;-69
2021/04/01 07:13:19;;;;;;;14.93;9.95;;;17.80;91.70;;;;;;4985005;28;20635;-70
2021/04/01 07:15:52;;;;;;;15.38;9.70;;;17.80;91.50;;;;;;4971732;28;20221;-70
2021/04/01 07:18:51;;;;;;;12.23;9.35;;;17.90;91.30;;;;;;4976844;28;20266;-69
2021/04/01 07:34:33;;;;;;;16.05;10.25;;;18.50;90.00;;;;;;4988362;28;20261;-70
2021/04/01 07:47:56;;;;;;;19.70;12.85;;;18.90;87.10;;;;;;4969947;28;20235;-70
2021/04/01 07:50:25;;;;;;;16.35;11.25;;;18.90;86.60;;;;;;4975303;28;20541;-69
2021/04/01 07:52:53;;;;;;;19.38;13.38;;;19.00;86.80;;;;;;4979060;28;20217;-75
2021/04/01 07:55:24;;;;;;;22.35;13.23;;;19.10;86.00;;;;;;4969785;28;20309;-71
2021/04/01 07:58:15;;;;;;;22.27;13.35;;;19.10;85.40;;;;;;4985682;28;20209;-71
2021/04/01 08:00:46;;;;;;;22.60;14.57;;;19.10;85.10;;;;;;4983715;28;20759;-70
2021/04/01 08:06:08;;;;;;;46.28;28.60;;;19.30;82.40;;;;;;4981444;28;20200;-71
2021/04/01 08:08:37;;;;;;;46.60;28.60;;;19.50;79.20;;;;;;4969523;28;20208;-71
2021/04/01 08:11:06;;;;;;;48.83;29.33;;;19.50;81.10;;;;;;4969302;28;20280;-71
2021/04/01 08:13:35;;;;;;;48.90;29.75;;;19.50;81.70;;;;;;4969157;28;20209;-71
2021/04/01 08:16:05;;;;;;;44.38;28.33;;;19.60;81.60;;;;;;4969312;28;20226;-71
2021/04/01 08:18:36;;;;;;;48.53;27.48;;;19.60;81.70;;;;;;4969193;28;20549;-71
2021/04/01 08:21:06;;;;;;;37.53;24.90;;;19.60;81.70;;;;;;4969421;28;20189;-71
2021/04/01 08:23:34;;;;;;;41.72;24.70;;;19.70;81.80;;;;;;4969350;28;20186;-71
2021/04/01 08:26:12;;;;;;;38.47;25.02;;;19.80;81.80;;;;;;4968915;28;20225;-71
2021/04/01 08:28:49;;;;;;;42.28;24.05;;;19.80;81.60;;;;;;4968733;28;20767;-71
2021/04/01 08:34:20;;;;;;;36.60;23.35;;;19.90;81.10;;;;;;4978174;28;20540;-71
2021/04/01 08:36:48;;;;;;;32.35;22.02;;;19.90;81.30;;;;;;4977581;28;20234;-71
2021/04/01 08:39:16;;;;;;;31.88;19.98;;;20.00;81.40;;;;;;4982230;28;20197;-71
2021/04/01 08:42:19;;;;;;;31.77;20.75;;;20.00;81.20;;;;;;4981557;28;20202;-71
2021/04/01 08:45:02;;;;;;;31.20;20.65;;;20.00;81.30;;;;;;4979473;28;20204;-71
2021/04/01 08:47:36;;;;;;;32.13;19.85;;;20.00;81.20;;;;;;4974425;28;20632;-71
2021/04/01 08:50:19;;;;;;;21.65;16.42;;;20.10;81.40;;;;;;4981505;28;20203;-71
2021/04/01 08:53:08;;;;;;;22.23;16.08;;;20.10;81.40;;;;;;4982226;28;20200;-71
2021/04/01 08:55:40;;;;;;;29.23;18.70;;;20.10;81.10;;;;;;4977244;28;20209;-71
2021/04/01 08:58:16;;;;;;;23.02;17.88;;;20.10;81.20;;;;;;4971134;28;20206;-71
2021/04/01 09:00:44;;;;;;;25.25;18.20;;;20.10;81.00;;;;;;4979122;28;20221;-70
2021/04/01 09:03:11;;;;;;;22.30;16.02;;;20.20;81.20;;;;;;4980526;28;20216;-71
2021/04/01 09:05:52;;;;;;;27.48;16.85;;;20.20;81.20;;;;;;4981383;28;20653;-71
2021/04/01 09:08:23;;;;;;;25.52;17.50;;;20.20;81.10;;;;;;4981538;28;20205;-71
2021/04/01 09:10:53;;;;;;;21.15;15.10;;;20.20;81.10;;;;;;4984007;28;20201;-71
2021/04/01 09:13:26;;;;;;;21.75;15.93;;;20.20;81.40;;;;;;4974411;28;20223;-71
2021/04/01 09:15:55;;;;;;;24.70;15.75;;;20.20;81.00;;;;;;4976429;28;20210;-71
2021/04/01 09:18:23;;;;;;;25.23;15.82;;;20.20;81.20;;;;;;4979584;28;20209;-71
2021/04/01 09:20:52;;;;;;;20.67;13.93;;;20.20;81.40;;;;;;4982312;28;20236;-71
2021/04/01 09:23:20;;;;;;;19.27;14.45;;;20.20;81.20;;;;;;4978448;28;20225;-71
2021/04/01 09:25:49;;;;;;;21.58;14.07;;;20.20;81.10;;;;;;4983011;28;20737;-72
2021/04/01 09:28:16;;;;;;;27.52;15.77;;;20.20;81.10;;;;;;4981459;28;20224;-71
2021/04/01 09:30:44;;;;;;;31.48;20.20;;;20.20;80.80;;;;;;4985941;28;20205;-71
2021/04/01 09:33:22;;;;;;;31.83;17.80;;;20.20;79.80;;;;;;4979133;28;20221;-71
2021/04/01 09:35:49;;;;;;;29.23;17.30;;;20.20;79.20;;;;;;4985398;28;20224;-72
2021/04/01 09:38:15;;;;;;;25.48;14.02;;;20.20;79.30;;;;;;4984102;28;20227;-71
2021/04/01 09:40:44;;;;;;;26.95;16.52;;;20.20;80.10;;;;;;4983585;28;20258;-72
2021/04/01 09:43:13;;;;;;;25.05;16.25;;;20.20;80.40;;;;;;4980301;28;20663;-72
2021/04/01 09:45:40;;;;;;;27.48;17.08;;;20.10;80.70;;;;;;4977913;28;20255;-70
2021/04/01 09:48:07;;;;;;;21.48;14.85;;;20.10;80.50;;;;;;4981775;28;20536;-70
2021/04/01 09:50:35;;;;;;;25.20;16.35;;;20.10;81.00;;;;;;4980292;28;20266;-70
2021/04/01 09:53:06;;;;;;;29.98;19.05;;;20.10;81.00;;;;;;4984099;28;20677;-70
2021/04/01 09:55:39;;;;;;;36.55;23.02;;;20.10;80.20;;;;;;4980353;28;20217;-70
2021/04/01 09:58:21;;;;;;;28.60;19.13;;;20.10;79.90;;;;;;4988255;28;20228;-70
2021/04/01 10:03:34;;;;;;;29.40;18.88;;;20.10;81.60;;;;;;4976066;28;20196;-70
2021/04/01 10:06:00;;;;;;;31.50;20.33;;;20.00;80.90;;;;;;4973442;28;20194;-70
2021/04/01 10:08:30;;;;;;;27.48;17.67;;;20.00;81.10;;;;;;4977858;28;20237;-71
2021/04/01 10:10:58;;;;;;;27.10;17.75;;;20.00;81.70;;;;;;4981830;28;20204;-71
2021/04/01 10:13:26;;;;;;;25.90;17.73;;;20.00;81.90;;;;;;4979596;28;20229;-70
2021/04/01 10:15:54;;;;;;;23.35;14.20;;;20.00;82.20;;;;;;4978138;28;20246;-71
2021/04/01 10:18:24;;;;;;;28.08;19.45;;;20.00;82.50;;;;;;4983849;28;20648;-70
2021/04/01 10:21:00;;;;;;;36.75;22.65;;;20.00;83.20;;;;;;4983982;28;20554;-71
2021/04/01 10:23:28;;;;;;;32.22;17.55;;;20.00;82.30;;;;;;4975256;28;20201;-71
2021/04/01 10:26:06;;;;;;;30.40;19.52;;;20.00;82.00;;;;;;4980059;28;20315;-71
2021/04/01 10:28:39;;;;;;;33.25;21.45;;;19.90;82.10;;;;;;4981694;28;20211;-71
2021/04/01 10:31:11;;;;;;;31.92;20.90;;;19.90;82.10;;;;;;4982261;28;20212;-71
2021/04/01 10:33:42;;;;;;;31.73;18.77;;;19.90;82.60;;;;;;4982177;28;20201;-71
2021/04/01 10:36:09;;;;;;;24.25;17.85;;;19.90;82.80;;;;;;4981732;28;20205;-71
2021/04/01 10:38:37;;;;;;;32.90;21.65;;;19.90;82.50;;;;;;4985309;28;20254;-71
2021/04/01 10:41:16;;;;;;;31.30;21.60;;;19.90;82.60;;;;;;4984729;28;20300;-70
2021/04/01 10:43:44;;;;;;;30.83;20.40;;;19.90;82.80;;;;;;4980888;28;20207;-71
2021/04/01 10:46:17;;;;;;;29.00;18.73;;;19.90;83.20;;;;;;4971708;28;20225;-71
2021/04/01 10:48:47;;;;;;;28.48;18.38;;;19.90;83.60;;;;;;4981337;28;20637;-71
2021/04/01 10:51:16;;;;;;;30.13;21.38;;;19.90;83.70;;;;;;4982312;28;20528;-70
2021/04/01 10:53:44;;;;;;;30.77;20.52;;;19.90;83.50;;;;;;4978535;28;20667;-71
2021/04/01 10:56:12;;;;;;;30.50;20.42;;;19.90;83.30;;;;;;4980220;28;20261;-70
2021/04/01 10:58:49;;;;;;;30.45;20.25;;;19.90;83.50;;;;;;4972126;28;20235;-70
2021/04/01 11:01:17;;;;;;;29.55;20.13;;;19.90;83.90;;;;;;4985268;28;20213;-71
2021/04/01 11:03:46;;;;;;;30.10;21.25;;;19.90;83.80;;;;;;4979579;28;20251;-71
2021/04/01 11:06:14;;;;;;;27.48;18.02;;;19.90;84.00;;;;;;4980590;28;20207;-70
2021/04/01 11:08:42;;;;;;;29.88;19.90;;;19.80;83.70;;;;;;4975866;28;20312;-70
2021/04/01 11:11:10;;;;;;;24.40;17.35;;;19.80;83.30;;;;;;4981116;28;20205;-72
2021/04/01 11:13:38;;;;;;;28.60;19.27;;;19.80;83.90;;;;;;4979751;28;20201;-71
2021/04/01 11:16:06;;;;;;;28.92;20.17;;;19.80;84.20;;;;;;4984368;28;20217;-71
2021/04/01 11:18:36;;;;;;;32.90;21.48;;;19.80;84.20;;;;;;4976866;28;20266;-70
2021/04/01 11:21:06;;;;;;;30.33;20.30;;;19.90;84.40;;;;;;4980660;28;20211;-71
2021/04/01 11:23:34;;;;;;;28.38;19.38;;;19.80;84.40;;;;;;4979920;28;20296;-70
2021/04/01 11:26:01;;;;;;;34.78;24.67;;;19.80;84.70;;;;;;4980076;28;20304;-70
2021/04/01 11:28:37;;;;;;;34.55;24.58;;;19.80;85.70;;;;;;4984745;28;20206;-71
2021/04/01 11:31:04;;;;;;;35.38;23.73;;;19.80;85.30;;;;;;4972421;28;20203;-71
2021/04/01 11:33:30;;;;;;;33.08;21.45;;;19.80;85.00;;;;;;4976530;28;20209;-71
2021/04/01 11:36:04;;;;;;;31.85;23.42;;;19.80;85.50;;;;;;4979953;28;20229;-71
2021/04/01 11:38:38;;;;;;;33.45;23.00;;;19.80;85.30;;;;;;4980480;28;20201;-70
2021/04/01 11:41:07;;;;;;;32.50;23.90;;;19.70;85.20;;;;;;4975084;28;20205;-70
2021/04/01 11:43:35;;;;;;;33.30;23.70;;;19.70;85.40;;;;;;4982304;28;20251;-70
2021/04/01 11:46:22;;;;;;;35.80;21.15;;;19.70;85.40;;;;;;4975978;28;20208;-71
2021/04/01 11:48:50;;;;;;;41.05;26.90;;;19.70;85.40;;;;;;4979762;28;20211;-70
2021/04/01 11:51:20;;;;;;;31.35;22.88;;;19.80;85.50;;;;;;4976124;28;20293;-70
2021/04/01 11:53:47;;;;;;;35.28;26.23;;;19.70;85.10;;;;;;4976064;28;20193;-70
2021/04/01 11:56:14;;;;;;;30.52;22.70;;;19.70;85.00;;;;;;4970951;28;20218;-70
2021/04/01 11:58:41;;;;;;;30.00;21.10;;;19.70;85.00;;;;;;4972023;28;20209;-71
2021/04/01 12:01:11;;;;;;;31.15;23.80;;;19.70;85.30;;;;;;4981433;28;20213;-72
2021/04/01 12:03:50;;;;;;;33.83;23.10;;;19.70;85.30;;;;;;4974818;28;20292;-71
2021/04/01 12:06:17;;;;;;;34.45;24.80;;;19.70;85.30;;;;;;4973540;28;20193;-70
2021/04/01 12:08:44;;;;;;;37.63;26.83;;;19.70;85.20;;;;;;4981605;28;20206;-70
2021/04/01 12:11:10;;;;;;;40.70;27.23;;;19.60;85.00;;;;;;4980336;28;20201;-70
2021/04/01 12:13:37;;;;;;;34.78;25.17;;;19.60;85.10;;;;;;4974938;28;20205;-71
2021/04/01 12:16:15;;;;;;;40.42;26.92;;;19.60;85.30;;;;;;4977528;28;20259;-71
2021/04/01 12:18:42;;;;;;;36.75;26.52;;;19.60;85.20;;;;;;4974855;28;20201;-71
2021/04/01 12:21:09;;;;;;;41.00;28.55;;;19.60;85.10;;;;;;4979750;28;20621;-71
2021/04/01 12:23:46;;;;;;;43.17;32.03;;;19.60;85.10;;;;;;4984096;28;20217;-71
2021/04/01 12:26:12;;;;;;;41.33;29.25;;;19.50;84.80;;;;;;4977790;28;20241;-71
2021/04/01 12:28:39;;;;;;;38.88;27.33;;;19.50;84.70;;;;;;4982454;28;20765;-71
2021/04/01 12:31:12;;;;;;;34.92;24.05;;;19.50;84.70;;;;;;4982374;28;20200;-71
2021/04/01 12:33:48;;;;;;;32.67;23.73;;;19.50;84.70;;;;;;4977673;28;20381;-71
2021/04/01 12:36:15;;;;;;;33.60;24.13;;;19.50;85.10;;;;;;4979612;28;20228;-71
2021/04/01 12:38:44;;;;;;;33.97;24.00;;;19.50;84.80;;;;;;4988292;28;20204;-71
2021/04/01 12:41:26;;;;;;;32.13;22.52;;;19.50;84.20;;;;;;4983985;28;20236;-71
2021/04/01 12:43:53;;;;;;;32.53;21.10;;;19.40;84.10;;;;;;4977212;28;20233;-70
2021/04/01 12:46:21;;;;;;;30.08;21.88;;;19.50;84.50;;;;;;4979066;28;20202;-71
2021/04/01 12:48:50;;;;;;;34.63;22.40;;;19.10;76.80;;;;;;4979316;28;20215;-70
2021/04/01 12:51:20;;;;;;;27.77;20.17;;;19.20;77.90;;;;;;4984361;28;20229;-70
2021/04/01 12:53:59;;;;;;;26.13;19.13;;;19.30;78.30;;;;;;4984221;28;20209;-72
2021/04/01 12:56:30;;;;;;;27.80;19.15;;;19.40;80.10;;;;;;4979635;28;20299;-71
2021/04/01 12:58:59;;;;;;;27.83;17.23;;;19.40;80.20;;;;;;4979796;28;20271;-70
2021/04/01 13:01:30;;;;;;;23.42;15.45;;;19.40;80.20;;;;;;4981361;28;20269;-70
2021/04/01 13:03:59;;;;;;;24.20;17.15;;;19.40;80.60;;;;;;4976503;28;20288;-69
2021/04/01 13:06:32;;;;;;;20.52;15.82;;;19.50;80.90;;;;;;4981021;28;20201;-71
2021/04/01 13:09:03;;;;;;;22.85;14.93;;;19.40;81.20;;;;;;4980901;28;20206;-71
2021/04/01 13:11:29;;;;;;;18.25;13.82;;;19.50;81.80;;;;;;4973434;28;20895;-70
2021/04/01 13:13:56;;;;;;;20.02;13.70;;;19.50;82.20;;;;;;4983477;28;20642;-70
2021/04/01 13:16:22;;;;;;;17.85;13.02;;;19.50;82.80;;;;;;4977696;28;20221;-70
2021/04/01 13:18:49;;;;;;;17.58;11.40;;;19.50;82.90;;;;;;4974320;28;20198;-71
2021/04/01 13:24:07;;;;;;;13.95;11.30;;;19.50;83.50;;;;;;4974163;28;20661;-70
2021/04/01 13:26:34;;;;;;;14.60;10.13;;;19.40;83.60;;;;;;4971972;28;20324;-70
2021/04/01 13:29:02;;;;;;;13.77;10.23;;;19.50;84.00;;;;;;4982686;28;20200;-71
2021/04/01 13:31:38;;;;;;;12.00;8.30;;;19.40;84.20;;;;;;4983011;28;20205;-73
2021/04/01 13:34:11;;;;;;;11.52;9.23;;;19.40;84.10;;;;;;4980177;28;20197;-70
2021/04/01 13:36:40;;;;;;;11.35;7.18;;;19.40;84.50;;;;;;4985141;28;20239;-70
2021/04/01 13:39:08;;;;;;;11.48;7.20;;;19.50;84.60;;;;;;4978523;28;20669;-70
2021/04/01 13:41:54;;;;;;;9.07;6.60;;;19.40;84.50;;;;;;4976710;28;20223;-71
2021/04/01 13:44:22;;;;;;;7.93;5.53;;;19.40;84.80;;;;;;4984764;28;20205;-70
2021/04/01 13:46:49;;;;;;;14.50;5.65;;;19.40;84.60;;;;;;4978523;28;20205;-70